createdAt,value
2019-04-19T00:00:40.343Z,13.40
2019-04-19T00:03:12.939Z,13.30
2019-04-19T00:05:44.613Z,13.30
2019-04-19T00:08:31.088Z,13.20
2019-04-19T00:10:52.067Z,13.20
2019-04-19T00:13:15.615Z,13.20
2019-04-19T00:15:45.654Z,13.10
2019-04-19T00:18:19.665Z,13.00
2019-04-19T00:21:07.880Z,13.00
2019-04-19T00:23:27.931Z,13.00
2019-04-19T00:25:49.671Z,13.00
2019-04-19T00:28:25.794Z,12.90
2019-04-19T00:30:59.151Z,12.80
2019-04-19T00:33:30.573Z,12.80
2019-04-19T00:35:51.683Z,12.70
2019-04-19T00:38:40.627Z,12.70
2019-04-19T00:41:14.492Z,12.70
2019-04-19T00:43:59.104Z,12.60
2019-04-19T00:46:33.771Z,12.60
2019-04-19T00:49:02.830Z,12.50
2019-04-19T00:51:38.577Z,12.50
2019-04-19T00:54:00.111Z,12.50
2019-04-19T00:56:33.668Z,12.50
2019-04-19T00:58:58.300Z,12.40
2019-04-19T01:01:26.002Z,12.40
2019-04-19T01:03:54.383Z,12.40
2019-04-19T01:06:32.798Z,12.30
2019-04-19T01:09:07.519Z,12.30
2019-04-19T01:11:35.993Z,12.30
2019-04-19T01:14:11.600Z,12.30
2019-04-19T01:16:44.448Z,12.20
2019-04-19T01:19:04.228Z,12.20
2019-04-19T01:21:28.149Z,12.20
2019-04-19T01:24:00.440Z,12.20
2019-04-19T01:26:30.069Z,12.10
2019-04-19T01:29:04.179Z,12.10
2019-04-19T01:31:31.005Z,12.10
2019-04-19T01:34:07.502Z,12.10
2019-04-19T01:36:33.875Z,12.10
2019-04-19T01:39:18.771Z,12.00
2019-04-19T01:41:45.408Z,12.00
2019-04-19T01:44:35.728Z,12.00
2019-04-19T01:47:07.604Z,12.00
2019-04-19T01:49:52.934Z,11.90
2019-04-19T01:52:42.293Z,11.90
2019-04-19T01:54:56.499Z,11.90
2019-04-19T01:57:15.978Z,11.80
2019-04-19T01:59:50.810Z,11.80
2019-04-19T02:02:20.283Z,11.80
2019-04-19T02:04:47.680Z,11.70
2019-04-19T02:07:22.322Z,11.70
2019-04-19T02:10:05.341Z,11.70
2019-04-19T02:12:34.635Z,11.70
2019-04-19T02:14:58.558Z,11.60
2019-04-19T02:17:21.188Z,11.60
2019-04-19T02:19:57.172Z,11.60
2019-04-19T02:22:26.376Z,11.60
2019-04-19T02:24:54.284Z,11.60
2019-04-19T02:27:23.115Z,11.60
2019-04-19T02:29:59.477Z,11.50
2019-04-19T02:32:43.748Z,11.50
2019-04-19T02:35:18.700Z,11.50
2019-04-19T02:37:51.459Z,11.50
2019-04-19T02:40:38.928Z,11.50
2019-04-19T02:42:50.840Z,11.40
2019-04-19T02:47:57.835Z,11.40
2019-04-19T02:50:35.874Z,11.40
2019-04-19T02:52:58.484Z,11.40
2019-04-19T02:55:20.209Z,11.30
2019-04-19T02:58:06.637Z,11.30
2019-04-19T03:01:03.597Z,11.30
2019-04-19T03:03:27.544Z,11.30
2019-04-19T03:05:58.652Z,11.30
2019-04-19T03:08:08.333Z,11.30
2019-04-19T03:10:53.494Z,11.30
2019-04-19T03:13:21.655Z,11.20
2019-04-19T03:16:10.373Z,11.20
2019-04-19T03:18:30.764Z,11.20
2019-04-19T03:20:50.755Z,11.20
2019-04-19T03:23:23.436Z,11.20
2019-04-19T03:25:53.079Z,11.20
2019-04-19T03:28:22.187Z,11.20
2019-04-19T03:31:13.971Z,11.20
2019-04-19T03:38:37.611Z,11.10
2019-04-19T03:41:07.761Z,11.10
2019-04-19T03:43:41.148Z,11.10
2019-04-19T03:46:12.579Z,11.10
2019-04-19T03:48:46.350Z,11.10
2019-04-19T03:51:29.058Z,11.10
2019-04-19T03:58:27.495Z,11.00
2019-04-19T04:00:58.078Z,11.00
2019-04-19T04:03:32.918Z,11.00
2019-04-19T04:05:58.340Z,11.00
2019-04-19T04:08:32.932Z,11.00
2019-04-19T04:11:22.971Z,10.90
2019-04-19T04:14:07.400Z,10.90
2019-04-19T04:16:38.740Z,10.90
2019-04-19T04:19:03.697Z,10.90
2019-04-19T04:21:40.058Z,10.90
2019-04-19T04:24:14.431Z,10.90
2019-04-19T04:26:45.630Z,10.90
2019-04-19T04:29:15.798Z,10.80
2019-04-19T04:31:48.698Z,10.80
2019-04-19T04:34:24.173Z,10.80
2019-04-19T04:36:54.714Z,10.80
2019-04-19T04:39:07.777Z,10.80
2019-04-19T04:41:37.577Z,10.80
2019-04-19T04:44:23.385Z,10.80
2019-04-19T04:47:04.674Z,10.70
2019-04-19T04:50:01.904Z,10.70
2019-04-19T04:52:36.653Z,10.70
2019-04-19T04:55:09.346Z,10.70
2019-04-19T04:57:48.897Z,10.70
2019-04-19T05:00:09.773Z,10.70
2019-04-19T05:02:58.714Z,10.70
2019-04-19T05:05:33.502Z,10.60
2019-04-19T05:08:07.215Z,10.60
2019-04-19T05:10:30.731Z,10.60
2019-04-19T05:13:33.509Z,10.60
2019-04-19T05:15:48.181Z,10.60
2019-04-19T05:18:24.888Z,10.60
2019-04-19T05:20:48.045Z,10.60
2019-04-19T05:23:22.717Z,10.60
2019-04-19T05:25:56.405Z,10.60
2019-04-19T05:28:23.733Z,10.60
2019-04-19T05:30:46.858Z,10.60
2019-04-19T05:33:18.145Z,10.60
2019-04-19T05:35:57.283Z,10.60
2019-04-19T05:38:55.988Z,10.60
2019-04-19T05:41:33.201Z,10.60
2019-04-19T05:44:43.361Z,10.60
2019-04-19T05:47:05.381Z,10.60
2019-04-19T05:49:33.792Z,10.60
2019-04-19T05:52:07.936Z,10.60
2019-04-19T05:54:19.236Z,10.50
2019-04-19T05:56:51.729Z,10.50
2019-04-19T05:59:31.893Z,10.50
2019-04-19T06:02:02.157Z,10.50
2019-04-19T06:04:58.202Z,10.50
2019-04-19T06:07:24.492Z,10.50
2019-04-19T06:09:32.993Z,10.50
2019-04-19T06:12:11.333Z,10.50
2019-04-19T06:14:58.154Z,10.50
2019-04-19T06:17:39.734Z,10.50
2019-04-19T06:20:13.650Z,10.50
2019-04-19T06:22:47.750Z,10.60
2019-04-19T06:25:12.473Z,10.60
2019-04-19T06:28:05.243Z,10.60
2019-04-19T06:30:24.644Z,10.70
2019-04-19T06:32:52.061Z,10.70
2019-04-19T06:35:11.594Z,10.80
2019-04-19T06:37:31.720Z,10.80
2019-04-19T06:40:09.812Z,10.90
2019-04-19T06:42:40.656Z,10.90
2019-04-19T06:45:19.797Z,11.10
2019-04-19T06:47:38.910Z,11.10
2019-04-19T06:50:05.126Z,11.20
2019-04-19T06:52:36.341Z,11.30
2019-04-19T06:55:14.049Z,11.40
2019-04-19T06:57:51.526Z,11.50
2019-04-19T07:00:22.711Z,11.60
2019-04-19T07:02:41.351Z,11.60
2019-04-19T07:05:23.246Z,11.70
2019-04-19T07:08:08.874Z,11.80
2019-04-19T07:13:02.946Z,11.90
2019-04-19T07:15:44.283Z,11.90
2019-04-19T07:17:59.542Z,12.00
2019-04-19T07:20:32.987Z,12.00
2019-04-19T07:23:02.782Z,12.10
2019-04-19T07:25:42.730Z,12.10
2019-04-19T07:27:59.794Z,12.10
2019-04-19T07:30:20.327Z,12.20
2019-04-19T07:32:53.977Z,12.20
2019-04-19T07:35:40.098Z,12.30
2019-04-19T07:38:18.995Z,12.30
2019-04-19T07:40:45.585Z,12.30
2019-04-19T07:43:11.857Z,12.40
2019-04-19T07:45:45.833Z,12.50
2019-04-19T07:48:10.037Z,12.50
2019-04-19T07:50:44.656Z,12.60
2019-04-19T07:53:04.277Z,12.70
2019-04-19T07:55:43.267Z,12.70
2019-04-19T07:58:38.243Z,12.80
2019-04-19T08:01:00.741Z,12.90
2019-04-19T08:08:46.993Z,13.10
2019-04-19T08:28:24.677Z,14.00
2019-04-19T08:30:48.683Z,14.00
2019-04-19T08:33:14.678Z,14.20
2019-04-19T08:35:48.069Z,14.20
2019-04-19T08:38:20.663Z,14.30
2019-04-19T08:41:02.318Z,14.40
2019-04-19T08:43:31.924Z,14.60
2019-04-19T08:46:09.518Z,14.70
2019-04-19T08:49:07.153Z,14.70
2019-04-19T08:51:48.748Z,14.90
2019-04-19T08:54:37.028Z,14.90
2019-04-19T08:56:57.785Z,15.10
2019-04-19T08:59:43.967Z,15.20
2019-04-19T09:02:11.056Z,15.30
2019-04-19T09:04:40.640Z,15.40
2019-04-19T09:07:34.121Z,15.50
2019-04-19T09:09:40.639Z,15.60
2019-04-19T09:12:13.227Z,15.70
2019-04-19T09:14:45.741Z,15.80
2019-04-19T09:17:28.594Z,16.00
2019-04-19T09:20:00.905Z,16.10
2019-04-19T09:22:17.782Z,16.20
2019-04-19T09:24:39.719Z,16.30
2019-04-19T09:27:11.230Z,16.40
2019-04-19T09:29:53.863Z,16.50
2019-04-19T09:32:07.773Z,16.70
2019-04-19T09:34:30.383Z,16.80
2019-04-19T09:37:11.201Z,16.90
2019-04-19T09:39:41.359Z,17.00
2019-04-19T09:42:12.836Z,17.10
2019-04-19T09:44:40.199Z,17.20
2019-04-19T09:47:04.380Z,17.40
2019-04-19T09:49:47.928Z,17.50
2019-04-19T09:52:30.358Z,17.60
2019-04-19T09:55:01.985Z,17.70
2019-04-19T09:57:26.660Z,17.80
2019-04-19T09:59:39.118Z,17.90
2019-04-19T10:02:10.008Z,18.10
2019-04-19T10:04:39.931Z,18.20
2019-04-19T10:07:09.104Z,18.30
2019-04-19T10:09:38.410Z,18.50
2019-04-19T10:12:07.508Z,18.60
2019-04-19T10:14:37.447Z,18.70
2019-04-19T10:17:16.626Z,18.90
2019-04-19T10:19:46.604Z,19.00
2019-04-19T10:22:16.644Z,19.10
2019-04-19T10:24:47.651Z,19.20
2019-04-19T10:27:24.894Z,19.40
2019-04-19T10:29:55.477Z,19.50
2019-04-19T10:32:32.975Z,19.70
2019-04-19T10:35:02.346Z,19.80
2019-04-19T10:37:31.668Z,19.90
2019-04-19T10:40:02.072Z,20.00
2019-04-19T10:42:31.517Z,20.20
2019-04-19T10:45:00.631Z,20.30
2019-04-19T10:47:29.582Z,20.40
2019-04-19T10:50:14.210Z,20.60
2019-04-19T10:52:29.436Z,20.60
2019-04-19T10:54:59.395Z,20.80
2019-04-19T10:57:29.706Z,20.90
2019-04-19T11:00:03.009Z,21.00
2019-04-19T11:02:34.467Z,21.10
2019-04-19T11:05:05.439Z,21.20
2019-04-19T11:07:34.948Z,21.30
2019-04-19T11:10:07.480Z,21.40
2019-04-19T11:12:36.585Z,21.50
2019-04-19T11:15:06.682Z,21.70
2019-04-19T11:17:35.917Z,21.80
2019-04-19T11:20:19.910Z,21.90
2019-04-19T11:22:37.560Z,22.00
2019-04-19T11:25:08.117Z,22.10
2019-04-19T11:27:37.389Z,22.20
2019-04-19T11:30:21.184Z,22.30
2019-04-19T11:32:50.552Z,22.40
2019-04-19T11:35:21.447Z,22.50
2019-04-19T11:37:51.046Z,22.60
2019-04-19T11:40:21.350Z,22.70
2019-04-19T11:42:51.153Z,22.80
2019-04-19T11:45:21.817Z,22.90
2019-04-19T11:47:51.326Z,23.00
2019-04-19T11:50:21.960Z,23.10
2019-04-19T11:53:22.671Z,23.20
2019-04-19T11:56:12.077Z,23.30
2019-04-19T11:58:42.551Z,23.40
2019-04-19T12:01:16.248Z,23.50
2019-04-19T12:03:45.826Z,23.60
2019-04-19T12:06:16.173Z,23.70
2019-04-19T12:09:08.807Z,23.80
2019-04-19T12:11:40.151Z,23.90
2019-04-19T12:14:14.155Z,24.00
2019-04-19T12:16:44.677Z,24.10
2019-04-19T12:19:16.559Z,24.10
2019-04-19T12:21:53.686Z,24.20
2019-04-19T12:24:22.774Z,24.30
2019-04-19T12:26:53.604Z,24.40
2019-04-19T12:29:30.215Z,24.50
2019-04-19T12:31:54.497Z,24.60
2019-04-19T12:34:50.847Z,24.60
2019-04-19T12:37:20.121Z,24.70
2019-04-19T12:39:49.043Z,24.80
2019-04-19T12:42:31.826Z,24.90
2019-04-19T12:45:02.067Z,25.00
2019-04-19T12:47:53.174Z,25.00
2019-04-19T12:50:22.287Z,25.10
2019-04-19T12:52:51.817Z,25.20
2019-04-19T12:58:19.766Z,25.30
2019-04-19T13:01:17.743Z,25.40
2019-04-19T13:04:04.378Z,25.40
2019-04-19T13:06:52.482Z,25.50
2019-04-19T13:09:26.889Z,25.60
2019-04-19T13:12:05.173Z,25.60
2019-04-19T13:14:35.506Z,25.70
2019-04-19T13:17:04.666Z,25.80
2019-04-19T13:19:33.729Z,25.80
2019-04-19T13:22:02.762Z,25.90
2019-04-19T13:24:32.196Z,25.90
2019-04-19T13:27:21.201Z,26.00
2019-04-19T13:30:12.208Z,26.00
2019-04-19T13:32:21.848Z,26.10
2019-04-19T13:34:51.556Z,26.10
2019-04-19T13:37:45.786Z,26.10
2019-04-19T13:40:26.268Z,26.20
2019-04-19T13:42:58.286Z,26.20
2019-04-19T13:45:29.865Z,26.30
2019-04-19T13:47:56.629Z,26.30
2019-04-19T13:50:31.799Z,26.40
2019-04-19T13:52:57.015Z,26.50
2019-04-19T13:55:26.551Z,26.50
2019-04-19T13:57:55.740Z,26.60
2019-04-19T14:00:40.610Z,26.60
2019-04-19T14:03:09.877Z,26.70
2019-04-19T14:05:39.022Z,26.90
2019-04-19T14:08:09.064Z,27.00
2019-04-19T14:10:39.244Z,27.00
2019-04-19T14:13:09.393Z,27.10
2019-04-19T14:15:40.791Z,27.20
2019-04-19T14:18:10.827Z,27.30
2019-04-19T14:20:43.996Z,27.40
2019-04-19T14:23:10.834Z,27.50
2019-04-19T14:25:41.184Z,27.60
2019-04-19T14:28:11.377Z,27.60
2019-04-19T14:30:41.474Z,27.70
2019-04-19T14:33:10.588Z,27.70
2019-04-19T14:35:39.860Z,27.80
2019-04-19T14:38:09.501Z,27.90
2019-04-19T14:40:39.814Z,28.00
2019-04-19T14:43:08.918Z,28.10
2019-04-19T14:45:38.153Z,28.20
2019-04-19T14:48:07.349Z,28.30
2019-04-19T14:50:48.555Z,28.40
2019-04-19T14:53:08.056Z,28.50
2019-04-19T14:55:38.098Z,28.50
2019-04-19T14:58:07.433Z,28.60
2019-04-19T15:00:36.884Z,28.70
2019-04-19T15:03:12.744Z,28.70
2019-04-19T15:05:43.709Z,28.80
2019-04-19T15:08:12.900Z,28.80
2019-04-19T15:10:41.870Z,28.90
2019-04-19T15:13:10.971Z,29.00
2019-04-19T15:15:41.371Z,29.10
2019-04-19T15:18:11.010Z,29.10
2019-04-19T15:20:41.326Z,29.20
2019-04-19T15:23:10.899Z,29.30
2019-04-19T15:25:40.378Z,29.40
2019-04-19T15:28:10.918Z,29.40
2019-04-19T15:30:42.278Z,29.50
2019-04-19T15:33:10.645Z,29.60
2019-04-19T15:35:39.673Z,29.70
2019-04-19T15:38:09.841Z,29.60
2019-04-19T15:40:38.902Z,29.70
2019-04-19T15:43:08.813Z,29.80
2019-04-19T15:45:38.962Z,29.90
2019-04-19T15:48:08.934Z,29.90
2019-04-19T15:50:38.189Z,30.00
2019-04-19T15:53:09.169Z,30.10
2019-04-19T15:55:38.014Z,30.20
2019-04-19T15:58:08.467Z,30.20
2019-04-19T16:00:46.464Z,30.20
2019-04-19T16:03:42.055Z,30.20
2019-04-19T16:06:18.610Z,30.20
2019-04-19T16:09:06.702Z,30.20
2019-04-19T16:11:49.081Z,30.30
2019-04-19T16:14:19.883Z,30.20
2019-04-19T16:16:49.058Z,30.30
2019-04-19T16:19:18.528Z,30.30
2019-04-19T16:21:52.946Z,30.30
2019-04-19T16:24:18.867Z,30.30
2019-04-19T16:26:48.929Z,30.30
2019-04-19T16:29:28.807Z,30.30
2019-04-19T16:31:48.881Z,30.20
2019-04-19T16:34:18.335Z,30.20
2019-04-19T16:36:47.807Z,30.20
2019-04-19T16:39:17.181Z,30.20
2019-04-19T16:41:47.365Z,30.10
2019-04-19T16:44:16.338Z,30.00
2019-04-19T16:46:45.454Z,29.90
2019-04-19T16:49:14.487Z,29.80
2019-04-19T16:51:48.776Z,29.70
2019-04-19T16:54:14.265Z,29.60
2019-04-19T16:56:43.990Z,29.50
2019-04-19T16:59:14.253Z,29.40
2019-04-19T17:01:43.325Z,29.20
2019-04-19T17:04:13.530Z,29.10
2019-04-19T17:06:42.722Z,28.90
2019-04-19T17:09:13.135Z,28.80
2019-04-19T17:11:42.231Z,28.70
2019-04-19T17:14:12.401Z,28.60
2019-04-19T17:17:07.125Z,28.40
2019-04-19T17:19:44.527Z,28.20
2019-04-19T17:22:18.850Z,28.10
2019-04-19T17:24:45.148Z,27.90
2019-04-19T17:27:14.265Z,27.80
2019-04-19T17:29:43.350Z,27.60
2019-04-19T17:32:12.527Z,27.40
2019-04-19T17:34:42.458Z,27.30
2019-04-19T17:37:11.931Z,27.20
2019-04-19T17:39:40.979Z,27.00
2019-04-19T17:42:10.564Z,26.90
2019-04-19T17:44:39.795Z,26.70
2019-04-19T17:47:11.594Z,26.50
2019-04-19T17:49:40.643Z,26.40
2019-04-19T17:52:19.012Z,26.30
2019-04-19T17:54:56.234Z,26.10
2019-04-19T17:57:11.662Z,26.00
2019-04-19T17:59:42.471Z,25.90
2019-04-19T18:02:12.856Z,25.80
2019-04-19T18:04:42.195Z,25.60
2019-04-19T18:07:11.219Z,25.50
2019-04-19T18:09:45.921Z,25.40
2019-04-19T18:12:11.550Z,25.30
2019-04-19T18:14:41.413Z,25.10
2019-04-19T18:17:10.718Z,25.00
2019-04-19T18:19:41.963Z,24.80
2019-04-19T18:22:18.837Z,24.70
2019-04-19T18:24:46.874Z,24.60
2019-04-19T18:27:17.016Z,24.50
2019-04-19T18:29:42.419Z,24.40
2019-04-19T18:32:28.015Z,24.20
2019-04-19T18:34:57.892Z,24.10
2019-04-19T18:37:32.067Z,24.00
2019-04-19T18:39:58.342Z,23.90
2019-04-19T18:42:28.122Z,24.00
2019-04-19T18:45:00.777Z,23.80
2019-04-19T18:47:27.535Z,23.60
2019-04-19T18:49:57.382Z,23.40
2019-04-19T18:52:37.098Z,23.30
2019-04-19T18:55:05.102Z,23.20
2019-04-19T18:57:28.593Z,23.10
2019-04-19T19:00:00.704Z,22.90
2019-04-19T19:02:30.129Z,22.80
2019-04-19T19:05:05.024Z,22.70
2019-04-19T19:07:30.998Z,22.60
2019-04-19T19:10:03.997Z,22.50
2019-04-19T19:12:34.154Z,22.30
2019-04-19T19:15:03.032Z,22.20
2019-04-19T19:17:32.107Z,22.10
2019-04-19T19:20:11.422Z,21.90
2019-04-19T19:22:51.123Z,21.80
2019-04-19T19:25:19.725Z,21.70
2019-04-19T19:27:35.301Z,21.60
2019-04-19T19:30:05.255Z,21.50
2019-04-19T19:32:35.670Z,21.40
2019-04-19T19:35:12.139Z,21.30
2019-04-19T19:37:38.428Z,21.20
2019-04-19T19:40:23.377Z,21.10
2019-04-19T19:43:00.055Z,21.00
2019-04-19T19:45:25.354Z,20.90
2019-04-19T19:50:58.856Z,20.70
2019-04-19T19:53:37.210Z,20.60
2019-04-19T19:56:04.021Z,20.50
2019-04-19T19:58:18.419Z,20.40
2019-04-19T20:00:55.529Z,20.30
2019-04-19T20:03:16.393Z,20.30
2019-04-19T20:05:40.927Z,20.10
2019-04-19T20:08:09.419Z,20.10
2019-04-19T20:10:43.996Z,20.00
2019-04-19T20:13:15.665Z,19.90
2019-04-19T20:15:44.603Z,19.70
2019-04-19T20:18:13.621Z,19.70
2019-04-19T20:20:44.407Z,19.60
2019-04-19T20:23:22.611Z,19.50
2019-04-19T20:25:54.245Z,19.40
2019-04-19T20:28:22.741Z,19.30
2019-04-19T20:30:48.999Z,19.20
2019-04-19T20:33:17.925Z,19.10
2019-04-19T20:35:52.172Z,19.00
2019-04-19T20:38:21.709Z,18.90
2019-04-19T20:40:54.592Z,18.80
2019-04-19T20:43:35.077Z,18.80
2019-04-19T20:45:54.096Z,18.70
2019-04-19T20:48:24.712Z,18.60
2019-04-19T20:51:04.812Z,18.50
2019-04-19T20:53:35.878Z,18.40
2019-04-19T20:58:38.771Z,18.20
2019-04-19T21:01:03.074Z,18.20
2019-04-19T21:03:35.946Z,18.10
2019-04-19T21:06:03.861Z,18.00
2019-04-19T21:08:38.815Z,18.00
2019-04-19T21:11:07.333Z,17.90
2019-04-19T21:13:39.084Z,17.80
2019-04-19T21:16:06.584Z,17.70
2019-04-19T21:18:35.960Z,17.70
2019-04-19T21:21:08.984Z,17.60
2019-04-19T21:23:36.256Z,17.50
2019-04-19T21:26:14.620Z,17.40
2019-04-19T21:28:42.845Z,17.40
2019-04-19T21:31:09.440Z,17.30
2019-04-19T21:33:40.658Z,17.20
2019-04-19T21:36:11.643Z,17.10
2019-04-19T21:38:40.193Z,17.10
2019-04-19T21:41:18.834Z,17.10
2019-04-19T21:43:41.922Z,17.00
2019-04-19T21:46:13.436Z,16.90
2019-04-19T21:48:44.280Z,16.90
2019-04-19T21:51:18.461Z,16.80
2019-04-19T21:53:46.250Z,16.80
2019-04-19T21:56:16.648Z,16.70
2019-04-19T21:58:48.406Z,16.70
2019-04-19T22:01:19.011Z,16.60
2019-04-19T22:03:54.507Z,16.50
2019-04-19T22:06:24.098Z,16.40
2019-04-19T22:08:50.325Z,16.40
2019-04-19T22:11:20.566Z,16.30
2019-04-19T22:13:52.486Z,16.30
2019-04-19T22:16:27.990Z,16.20
2019-04-19T22:18:54.045Z,16.10
2019-04-19T22:21:22.815Z,16.10
2019-04-19T22:23:54.592Z,16.00
2019-04-19T22:26:30.071Z,16.00
2019-04-19T22:28:53.787Z,15.90
2019-04-19T22:31:27.582Z,15.90
2019-04-19T22:33:54.445Z,15.80
2019-04-19T22:36:23.688Z,15.70
2019-04-19T22:38:57.068Z,15.70
2019-04-19T22:41:26.707Z,15.70
2019-04-19T22:43:54.564Z,15.60
2019-04-19T22:46:23.681Z,15.60
2019-04-19T22:48:57.974Z,15.50
2019-04-19T22:51:24.485Z,15.50
2019-04-19T22:53:54.579Z,15.40
2019-04-19T22:56:32.647Z,15.30
2019-04-19T22:58:58.985Z,15.30
2019-04-19T23:01:41.205Z,15.20
2019-04-19T23:04:15.421Z,15.20
2019-04-19T23:06:40.640Z,15.10
2019-04-19T23:09:13.033Z,15.00
2019-04-19T23:11:40.125Z,15.00
2019-04-19T23:14:11.535Z,15.00
2019-04-19T23:16:48.714Z,14.90
2019-04-19T23:19:14.225Z,14.90
2019-04-19T23:21:47.730Z,14.80
2019-04-19T23:24:15.236Z,14.80
2019-04-19T23:27:00.572Z,14.70
2019-04-19T23:29:19.965Z,14.70
2019-04-19T23:31:49.069Z,14.60
2019-04-19T23:34:14.914Z,14.60
2019-04-19T23:36:44.988Z,14.50
2019-04-19T23:39:15.543Z,14.50
2019-04-19T23:41:44.787Z,14.50
2019-04-19T23:44:18.492Z,14.40
2019-04-19T23:46:45.516Z,14.40
2019-04-19T23:49:17.578Z,14.30
2019-04-19T23:51:45.276Z,14.30
2019-04-19T23:54:20.583Z,14.30
2019-04-19T23:56:55.084Z,14.20
2019-04-19T23:59:19.007Z,14.20
